Time;durP1;ratioP1;P1;durP2;ratioP2;P2;SDS_P1;SDS_P2;PMS_P1;PMS_P2;Temp;Humidity;BMP_temperature;BMP_pressure;BME280_temperature;BME280_humidity;BME280_pressure;Samples;Min_cycle;Max_cycle;Signal;HPM_P1;HPM_P2
2022/07/21 00:02:12;;;;;;;12.43;8.33;;;;;;;;;;4992343;28;20273;-69
2022/07/21 00:04:37;;;;;;;14.03;8.33;;;;;;;;;;4986686;28;20018;-67
2022/07/21 00:07:02;;;;;;;12.57;8.38;;;;;;;;;;4992202;28;20778;-68
2022/07/21 00:09:28;;;;;;;12.83;8.80;;;;;;;;;;4991637;28;20089;-68
2022/07/21 00:11:53;;;;;;;15.93;8.43;;;;;;;;;;4989890;28;20380;-68
2022/07/21 00:14:18;;;;;;;15.60;8.67;;;;;;;;;;4988193;28;20038;-68
2022/07/21 00:16:43;;;;;;;14.60;8.23;;;;;;;;;;4987705;28;20277;-68
2022/07/21 00:19:09;;;;;;;11.63;7.75;;;;;;;;;;4990587;28;20454;-68
2022/07/21 00:21:35;;;;;;;13.45;8.05;;;;;;;;;;4990770;28;20031;-69
2022/07/21 00:24:00;;;;;;;10.68;7.22;;;;;;;;;;4990656;28;20038;-68
2022/07/21 00:26:25;;;;;;;12.10;7.47;;;;;;;;;;4990603;28;20454;-68
2022/07/21 00:28:50;;;;;;;16.02;7.60;;;;;;;;;;4988977;28;20288;-68
2022/07/21 00:31:16;;;;;;;18.57;8.43;;;;;;;;;;4991592;28;20467;-67
2022/07/21 00:33:41;;;;;;;13.63;7.57;;;;;;;;;;4990461;28;20300;-68
2022/07/21 00:36:06;;;;;;;14.77;8.00;;;;;;;;;;4990415;28;20305;-68
2022/07/21 00:38:31;;;;;;;15.43;7.45;;;;;;;;;;4988785;28;20422;-68
2022/07/21 00:40:56;;;;;;;12.57;7.63;;;;;;;;;;4989482;28;20022;-68
2022/07/21 00:43:22;;;;;;;12.03;7.40;;;;;;;;;;4990086;28;20316;-69
2022/07/21 00:45:47;;;;;;;10.90;7.50;;;;;;;;;;4989648;28;20754;-68
2022/07/21 00:48:12;;;;;;;16.40;8.40;;;;;;;;;;4990502;28;20284;-68
2022/07/21 00:50:37;;;;;;;17.77;8.45;;;;;;;;;;4991126;28;20286;-68
2022/07/21 00:53:03;;;;;;;14.10;8.15;;;;;;;;;;4986635;28;20499;-68
2022/07/21 00:55:28;;;;;;;11.93;7.87;;;;;;;;;;4990397;28;20855;-68
2022/07/21 00:57:54;;;;;;;13.63;8.02;;;;;;;;;;4988922;28;20372;-68
2022/07/21 01:00:20;;;;;;;14.38;8.07;;;;;;;;;;4988274;28;20084;-68
2022/07/21 01:02:46;;;;;;;16.08;8.15;;;;;;;;;;4990074;28;20486;-69
2022/07/21 01:05:15;;;;;;;16.53;9.57;;;;;;;;;;4990191;28;20034;-68
2022/07/21 01:07:42;;;;;;;16.83;9.75;;;;;;;;;;4986982;28;20277;-68
2022/07/21 01:10:07;;;;;;;18.45;11.25;;;;;;;;;;4990928;28;20092;-69
2022/07/21 01:12:33;;;;;;;15.55;10.43;;;;;;;;;;4988163;28;20054;-70
2022/07/21 01:14:58;;;;;;;19.80;10.13;;;;;;;;;;4989052;28;20033;-70
2022/07/21 01:17:23;;;;;;;21.17;10.60;;;;;;;;;;4989824;28;20101;-70
2022/07/21 01:19:49;;;;;;;15.23;9.05;;;;;;;;;;4990016;28;20297;-70
2022/07/21 01:22:14;;;;;;;13.43;8.45;;;;;;;;;;4987344;28;20120;-69
2022/07/21 01:24:39;;;;;;;12.63;8.50;;;;;;;;;;4989559;28;20497;-69
2022/07/21 01:27:04;;;;;;;15.33;9.07;;;;;;;;;;4989143;28;20018;-69
2022/07/21 01:29:29;;;;;;;14.30;8.30;;;;;;;;;;4988598;28;20032;-69
2022/07/21 01:31:55;;;;;;;14.80;8.37;;;;;;;;;;4988164;28;20018;-69
2022/07/21 01:34:20;;;;;;;15.97;9.20;;;;;;;;;;4988128;28;20281;-69
2022/07/21 01:36:45;;;;;;;15.23;10.13;;;;;;;;;;4988089;28;20957;-69
2022/07/21 01:41:54;;;;;;;15.25;8.35;;;;;;;;;;4990097;28;20049;-69
2022/07/21 01:44:20;;;;;;;14.90;8.38;;;;;;;;;;4989313;28;20031;-69
2022/07/21 01:46:47;;;;;;;14.77;7.80;;;;;;;;;;4986810;28;20467;-69
2022/07/21 01:49:13;;;;;;;16.02;8.57;;;;;;;;;;4985401;28;20018;-70
2022/07/21 01:51:38;;;;;;;15.77;8.07;;;;;;;;;;4990230;28;20021;-70
2022/07/21 01:54:04;;;;;;;13.48;8.68;;;;;;;;;;4988736;28;20105;-69
2022/07/21 01:56:29;;;;;;;17.70;9.02;;;;;;;;;;4990540;28;20034;-69
2022/07/21 01:58:56;;;;;;;13.67;8.27;;;;;;;;;;4993512;28;20026;-70
2022/07/21 02:01:22;;;;;;;14.18;8.98;;;;;;;;;;4992430;28;20273;-70
2022/07/21 02:03:47;;;;;;;18.83;9.57;;;;;;;;;;4991654;28;20108;-70
2022/07/21 02:06:13;;;;;;;17.83;9.48;;;;;;;;;;4991808;28;20615;-69
2022/07/21 02:08:38;;;;;;;21.92;10.85;;;;;;;;;;4992232;28;20023;-69
2022/07/21 02:11:04;;;;;;;14.35;9.82;;;;;;;;;;4994794;28;20029;-69
2022/07/21 02:13:29;;;;;;;16.35;10.27;;;;;;;;;;4992038;28;20570;-69
2022/07/21 02:15:54;;;;;;;18.77;11.20;;;;;;;;;;4991488;28;20136;-68
2022/07/21 02:18:20;;;;;;;18.57;10.63;;;;;;;;;;4992088;28;20273;-68
2022/07/21 02:20:47;;;;;;;19.08;11.85;;;;;;;;;;4994184;28;20766;-68
2022/07/21 02:23:12;;;;;;;21.98;12.02;;;;;;;;;;4992982;28;20021;-68
2022/07/21 02:25:38;;;;;;;21.77;12.73;;;;;;;;;;4992406;28;20026;-68
2022/07/21 02:28:03;;;;;;;25.27;13.17;;;;;;;;;;4991379;28;20105;-68
2022/07/21 02:30:28;;;;;;;20.63;11.68;;;;;;;;;;4992733;28;20037;-68
2022/07/21 02:32:53;;;;;;;24.08;13.60;;;;;;;;;;4990185;28;20486;-67
2022/07/21 02:35:19;;;;;;;21.10;11.37;;;;;;;;;;4992466;28;20394;-67
2022/07/21 02:37:44;;;;;;;21.67;11.73;;;;;;;;;;4992077;28;20362;-67
2022/07/21 02:40:09;;;;;;;20.83;11.40;;;;;;;;;;4992938;28;20073;-67
2022/07/21 02:42:34;;;;;;;20.17;12.73;;;;;;;;;;4989738;28;20318;-68
2022/07/21 02:44:59;;;;;;;21.30;12.07;;;;;;;;;;4990120;28;20061;-68
2022/07/21 02:47:25;;;;;;;25.77;10.97;;;;;;;;;;4989402;28;20073;-68
2022/07/21 02:49:50;;;;;;;22.33;11.23;;;;;;;;;;4993469;28;20277;-68
2022/07/21 02:52:15;;;;;;;19.00;11.43;;;;;;;;;;4992753;28;20018;-68
2022/07/21 02:54:40;;;;;;;21.40;12.63;;;;;;;;;;4991084;28;20273;-68
2022/07/21 02:57:05;;;;;;;20.42;11.40;;;;;;;;;;4987767;28;20709;-68
2022/07/21 02:59:30;;;;;;;22.10;11.93;;;;;;;;;;4992879;28;20030;-69
2022/07/21 03:01:56;;;;;;;23.52;13.35;;;;;;;;;;4992965;28;20289;-69
2022/07/21 03:04:21;;;;;;;25.42;12.85;;;;;;;;;;4988053;28;20406;-69
2022/07/21 03:06:46;;;;;;;22.83;13.30;;;;;;;;;;4987457;28;20027;-69
2022/07/21 03:09:11;;;;;;;26.60;14.40;;;;;;;;;;4985396;28;20289;-68
2022/07/21 03:11:36;;;;;;;28.60;16.70;;;;;;;;;;4987461;28;20022;-69
2022/07/21 03:14:02;;;;;;;32.23;16.47;;;;;;;;;;4986974;28;20647;-69
2022/07/21 03:16:27;;;;;;;29.63;15.50;;;;;;;;;;4990289;28;20762;-70
2022/07/21 03:18:52;;;;;;;28.10;16.13;;;;;;;;;;4991419;28;20089;-69
2022/07/21 03:21:17;;;;;;;36.00;16.67;;;;;;;;;;4989759;28;20506;-69
2022/07/21 03:23:45;;;;;;;26.43;16.80;;;;;;;;;;4992826;28;20296;-69
2022/07/21 03:26:10;;;;;;;29.63;17.10;;;;;;;;;;4989591;28;20308;-69
2022/07/21 03:28:36;;;;;;;31.75;19.00;;;;;;;;;;4981747;23;20043;-69
2022/07/21 03:31:01;;;;;;;29.93;18.00;;;;;;;;;;4946160;28;20062;-69
2022/07/21 03:33:26;;;;;;;32.17;17.23;;;;;;;;;;4953959;28;20035;-69
2022/07/21 03:35:51;;;;;;;31.07;16.87;;;;;;;;;;4955256;28;20616;-69
2022/07/21 03:38:16;;;;;;;30.43;15.50;;;;;;;;;;4954534;28;20093;-69
2022/07/21 03:40:41;;;;;;;31.50;15.20;;;;;;;;;;4954190;28;20283;-69
2022/07/21 03:43:07;;;;;;;32.87;17.97;;;;;;;;;;4948453;28;20311;-69
2022/07/21 03:45:32;;;;;;;36.60;19.60;;;;;;;;;;4952601;28;20270;-68
2022/07/21 03:47:59;;;;;;;34.45;18.83;;;;;;;;;;4949431;28;20500;-68
2022/07/21 03:50:24;;;;;;;36.75;20.65;;;;;;;;;;4951083;28;20031;-68
2022/07/21 03:52:49;;;;;;;37.47;19.48;;;;;;;;;;4956096;28;20065;-68
2022/07/21 03:55:17;;;;;;;37.65;19.58;;;;;;;;;;4950663;28;20436;-68
2022/07/21 03:57:46;;;;;;;36.88;19.33;;;;;;;;;;4952236;28;20050;-68
2022/07/21 04:00:13;;;;;;;41.70;24.17;;;;;;;;;;4949297;28;21348;-68
2022/07/21 04:02:38;;;;;;;40.80;23.20;;;;;;;;;;4955278;28;20395;-66
2022/07/21 04:05:04;;;;;;;36.15;19.75;;;;;;;;;;4953500;28;20086;-68
2022/07/21 04:07:29;;;;;;;45.25;22.92;;;;;;;;;;4957157;28;21787;-68
2022/07/21 04:09:54;;;;;;;45.47;23.80;;;;;;;;;;4952212;28;20086;-68
2022/07/21 04:12:19;;;;;;;43.05;23.27;;;;;;;;;;4954133;28;20491;-68
2022/07/21 04:14:45;;;;;;;50.40;24.23;;;;;;;;;;4950532;28;20560;-68
2022/07/21 04:17:10;;;;;;;42.03;24.07;;;;;;;;;;4955490;28;20460;-68
2022/07/21 04:19:35;;;;;;;37.97;21.07;;;;;;;;;;4954685;28;20055;-68
2022/07/21 04:22:00;;;;;;;42.87;24.33;;;;;;;;;;4955381;28;20487;-68
2022/07/21 04:24:25;;;;;;;48.33;25.77;;;;;;;;;;4952676;29;20287;-68
2022/07/21 04:26:50;;;;;;;45.87;25.53;;;;;;;;;;4952171;28;20042;-68
2022/07/21 04:29:16;;;;;;;41.00;23.83;;;;;;;;;;4952545;28;20023;-68
2022/07/21 04:31:41;;;;;;;47.10;24.73;;;;;;;;;;4955928;28;20282;-68
2022/07/21 04:34:06;;;;;;;39.60;20.73;;;;;;;;;;4951724;29;20294;-68
2022/07/21 04:36:31;;;;;;;50.93;25.47;;;;;;;;;;4952116;28;20053;-67
2022/07/21 04:38:56;;;;;;;43.60;22.98;;;;;;;;;;4951161;28;20109;-68
2022/07/21 04:41:21;;;;;;;44.63;23.80;;;;;;;;;;4951066;28;20118;-68
2022/07/21 04:43:47;;;;;;;41.80;18.60;;;;;;;;;;4952115;28;20050;-68
2022/07/21 04:46:12;;;;;;;25.93;11.83;;;;;;;;;;4952481;28;20109;-67
2022/07/21 04:48:37;;;;;;;45.60;25.40;;;;;;;;;;4952521;28;20341;-68
2022/07/21 04:51:02;;;;;;;40.57;21.73;;;;;;;;;;4953147;28;20102;-68
2022/07/21 04:53:27;;;;;;;39.95;21.60;;;;;;;;;;4953749;28;20357;-67
2022/07/21 04:55:53;;;;;;;43.97;22.10;;;;;;;;;;4947937;28;20095;-67
2022/07/21 04:58:18;;;;;;;28.00;12.93;;;;;;;;;;4953012;28;20039;-67
2022/07/21 05:00:43;;;;;;;36.88;20.15;;;;;;;;;;4954600;28;20314;-68
2022/07/21 05:03:08;;;;;;;34.97;18.73;;;;;;;;;;4952635;29;20034;-68
2022/07/21 05:05:33;;;;;;;38.90;19.85;;;;;;;;;;4949589;28;20271;-68
2022/07/21 05:07:59;;;;;;;40.33;19.00;;;;;;;;;;4950139;29;20026;-67
2022/07/21 05:10:24;;;;;;;35.07;19.70;;;;;;;;;;4953701;28;20284;-67
2022/07/21 05:12:49;;;;;;;34.30;18.73;;;;;;;;;;4951317;28;20680;-68
2022/07/21 05:15:15;;;;;;;26.60;13.98;;;;;;;;;;4953925;28;20026;-68
2022/07/21 05:17:41;;;;;;;31.83;18.10;;;;;;;;;;4950383;28;20463;-67
2022/07/21 05:20:07;;;;;;;37.67;19.10;;;;;;;;;;4953384;28;20031;-67
2022/07/21 05:22:32;;;;;;;32.05;19.08;;;;;;;;;;4943749;28;20028;-67
2022/07/21 05:24:57;;;;;;;34.72;18.25;;;;;;;;;;4952999;28;20559;-68
2022/07/21 05:27:22;;;;;;;31.38;16.98;;;;;;;;;;4950188;28;20556;-68
2022/07/21 05:29:48;;;;;;;34.50;19.15;;;;;;;;;;4951522;28;20113;-68
2022/07/21 05:32:13;;;;;;;30.80;17.13;;;;;;;;;;4945691;28;20023;-67
2022/07/21 05:34:38;;;;;;;27.80;17.10;;;;;;;;;;4946920;28;20027;-67
2022/07/21 05:37:03;;;;;;;27.45;16.92;;;;;;;;;;4947498;28;20023;-67
2022/07/21 05:39:29;;;;;;;22.90;11.63;;;;;;;;;;4947541;28;20019;-68
2022/07/21 05:41:54;;;;;;;30.08;15.43;;;;;;;;;;4948983;28;20031;-67
2022/07/21 05:44:19;;;;;;;23.00;14.68;;;;;;;;;;4950490;28;20057;-67
2022/07/21 05:46:44;;;;;;;26.87;13.43;;;;;;;;;;4948879;28;20447;-68
2022/07/21 05:49:09;;;;;;;24.57;15.10;;;;;;;;;;4947571;28;20394;-67
2022/07/21 05:51:35;;;;;;;27.63;15.40;;;;;;;;;;4949472;28;20011;-68
2022/07/21 05:54:00;;;;;;;24.80;15.00;;;;;;;;;;4952386;28;20679;-67
2022/07/21 05:56:25;;;;;;;30.80;14.30;;;;;;;;;;4952382;28;20031;-67
2022/07/21 05:58:50;;;;;;;24.35;12.20;;;;;;;;;;4952864;28;20706;-67
2022/07/21 06:01:16;;;;;;;18.20;11.63;;;;;;;;;;4943282;28;20063;-67
2022/07/21 06:03:43;;;;;;;24.30;13.20;;;;;;;;;;4954805;28;20054;-67
2022/07/21 06:06:09;;;;;;;23.88;14.80;;;;;;;;;;4950898;28;20093;-67
2022/07/21 06:08:36;;;;;;;26.92;13.93;;;;;;;;;;4955507;28;20466;-67
2022/07/21 06:11:01;;;;;;;14.65;7.38;;;;;;;;;;4950325;28;20047;-67
2022/07/21 06:13:26;;;;;;;17.20;10.73;;;;;;;;;;4956485;28;20031;-67
2022/07/21 06:15:51;;;;;;;18.23;11.70;;;;;;;;;;4948738;28;20035;-67
2022/07/21 06:18:16;;;;;;;17.63;10.57;;;;;;;;;;4949282;28;20399;-68
2022/07/21 06:20:42;;;;;;;17.90;10.73;;;;;;;;;;4950301;28;20030;-67
2022/07/21 06:23:07;;;;;;;18.80;9.77;;;;;;;;;;4947754;28;20023;-67
2022/07/21 06:25:32;;;;;;;15.43;9.87;;;;;;;;;;4953723;28;20787;-67
2022/07/21 06:27:59;;;;;;;15.18;9.90;;;;;;;;;;4946084;28;20327;-67
2022/07/21 06:30:24;;;;;;;12.95;7.93;;;;;;;;;;4947289;28;20492;-67
2022/07/21 06:32:49;;;;;;;13.10;8.17;;;;;;;;;;4949720;29;20451;-68
2022/07/21 06:35:14;;;;;;;14.33;8.70;;;;;;;;;;4951014;28;20378;-67
2022/07/21 06:37:44;;;;;;;13.63;7.80;;;;;;;;;;4950818;29;20031;-68
2022/07/21 06:40:09;;;;;;;16.95;7.75;;;;;;;;;;4949152;28;20093;-67
2022/07/21 06:42:34;;;;;;;12.35;7.03;;;;;;;;;;4951615;28;20432;-68
2022/07/21 06:44:59;;;;;;;15.50;8.73;;;;;;;;;;4951390;28;20051;-68
2022/07/21 06:47:25;;;;;;;11.60;6.87;;;;;;;;;;4954169;28;20270;-67
2022/07/21 06:49:50;;;;;;;9.60;5.93;;;;;;;;;;4952589;28;20286;-68
2022/07/21 06:52:15;;;;;;;11.77;7.15;;;;;;;;;;4955334;28;20271;-67
2022/07/21 06:54:40;;;;;;;15.60;5.65;;;;;;;;;;4952442;28;20070;-67
2022/07/21 06:57:06;;;;;;;12.23;5.17;;;;;;;;;;4952825;29;20051;-67
2022/07/21 06:59:31;;;;;;;9.50;4.85;;;;;;;;;;4949717;28;20367;-68
2022/07/21 07:01:57;;;;;;;5.67;4.20;;;;;;;;;;4952105;28;20066;-67
2022/07/21 07:04:22;;;;;;;5.45;3.13;;;;;;;;;;4955206;28;20271;-67
2022/07/21 07:06:51;;;;;;;6.45;3.38;;;;;;;;;;4952516;28;20058;-67
2022/07/21 07:09:16;;;;;;;3.73;2.40;;;;;;;;;;4949349;28;20011;-67
2022/07/21 07:11:42;;;;;;;3.27;1.93;;;;;;;;;;4948860;28;20635;-68
2022/07/21 07:14:07;;;;;;;6.55;2.33;;;;;;;;;;4950332;28;20763;-68
2022/07/21 07:16:32;;;;;;;6.17;2.13;;;;;;;;;;4950320;29;20023;-67
2022/07/21 07:18:57;;;;;;;4.28;2.20;;;;;;;;;;4950999;28;20115;-68
2022/07/21 07:21:23;;;;;;;4.67;2.90;;;;;;;;;;4951826;29;20038;-68
2022/07/21 07:23:48;;;;;;;5.40;1.52;;;;;;;;;;4953404;28;20294;-67
2022/07/21 07:26:13;;;;;;;11.07;3.07;;;;;;;;;;4954909;29;20019;-67
2022/07/21 07:28:38;;;;;;;6.80;2.80;;;;;;;;;;4952495;28;20447;-68
2022/07/21 07:31:03;;;;;;;3.10;2.03;;;;;;;;;;4953315;28;20270;-67
2022/07/21 07:33:29;;;;;;;3.03;2.37;;;;;;;;;;4954437;29;20034;-67
2022/07/21 07:35:56;;;;;;;5.67;2.90;;;;;;;;;;4954299;28;20337;-68
2022/07/21 07:38:21;;;;;;;3.30;2.13;;;;;;;;;;4952973;28;20664;-68
2022/07/21 07:40:46;;;;;;;5.47;3.03;;;;;;;;;;4954379;28;20019;-68
2022/07/21 07:43:11;;;;;;;7.40;2.67;;;;;;;;;;4953146;28;20062;-67
2022/07/21 07:45:37;;;;;;;3.23;2.00;;;;;;;;;;4953801;28;20263;-68
2022/07/21 07:48:02;;;;;;;5.03;2.88;;;;;;;;;;4952912;28;20353;-68
2022/07/21 07:50:28;;;;;;;5.43;2.65;;;;;;;;;;4954445;29;20011;-69
2022/07/21 07:52:54;;;;;;;4.40;2.53;;;;;;;;;;4954532;28;20023;-69
2022/07/21 07:55:19;;;;;;;3.45;2.80;;;;;;;;;;4953258;28;20023;-69
2022/07/21 07:57:44;;;;;;;3.63;2.60;;;;;;;;;;4951655;28;20472;-68
2022/07/21 08:00:11;;;;;;;10.30;2.57;;;;;;;;;;4953578;29;20023;-69
2022/07/21 08:02:36;;;;;;;4.07;2.35;;;;;;;;;;4952679;28;20735;-69
2022/07/21 08:05:02;;;;;;;5.73;3.00;;;;;;;;;;4952866;28;20090;-69
2022/07/21 08:07:27;;;;;;;5.55;2.88;;;;;;;;;;4953726;28;20290;-68
2022/07/21 08:09:52;;;;;;;3.23;1.73;;;;;;;;;;4952898;28;20391;-68
2022/07/21 08:12:18;;;;;;;6.27;3.47;;;;;;;;;;4953972;28;20751;-68
2022/07/21 08:14:43;;;;;;;4.47;2.90;;;;;;;;;;4953772;28;20150;-68
2022/07/21 08:17:09;;;;;;;6.47;3.70;;;;;;;;;;4952837;28;20054;-68
2022/07/21 08:19:34;;;;;;;6.73;3.37;;;;;;;;;;4946310;28;20271;-67
2022/07/21 08:22:01;;;;;;;6.22;3.72;;;;;;;;;;4953363;28;20515;-68
2022/07/21 08:24:26;;;;;;;9.52;5.18;;;;;;;;;;4953677;28;20030;-68
2022/07/21 08:26:51;;;;;;;10.20;5.22;;;;;;;;;;4946805;28;20020;-68
2022/07/21 08:29:16;;;;;;;6.77;4.03;;;;;;;;;;4953156;28;20400;-68
2022/07/21 08:31:42;;;;;;;11.07;4.43;;;;;;;;;;4951143;28;20688;-68
2022/07/21 08:34:07;;;;;;;11.23;4.93;;;;;;;;;;4951953;28;20019;-68
2022/07/21 08:36:32;;;;;;;8.83;5.10;;;;;;;;;;4953741;28;20062;-68
2022/07/21 08:38:57;;;;;;;8.30;3.70;;;;;;;;;;4953062;28;20392;-67
2022/07/21 08:41:23;;;;;;;9.87;4.60;;;;;;;;;;4953745;28;20034;-68
2022/07/21 08:43:51;;;;;;;10.32;5.68;;;;;;;;;;4953194;28;20310;-69
2022/07/21 08:46:17;;;;;;;7.43;3.58;;;;;;;;;;4951945;28;20372;-69
2022/07/21 08:48:43;;;;;;;10.27;5.15;;;;;;;;;;4951450;28;20039;-68
2022/07/21 08:51:08;;;;;;;12.00;6.00;;;;;;;;;;4952804;29;20034;-68
2022/07/21 08:53:33;;;;;;;6.00;3.97;;;;;;;;;;4953181;28;20259;-69
2022/07/21 08:55:58;;;;;;;5.22;2.83;;;;;;;;;;4952957;28;20322;-69
2022/07/21 08:58:24;;;;;;;8.40;4.40;;;;;;;;;;4952737;28;20023;-68
2022/07/21 09:00:49;;;;;;;7.75;4.45;;;;;;;;;;4951785;28;20031;-69
2022/07/21 09:03:19;;;;;;;7.10;3.65;;;;;;;;;;4948496;28;20069;-69
2022/07/21 09:06:04;;;;;;;6.55;4.10;;;;;;;;;;4950768;28;20024;-68
2022/07/21 09:08:31;;;;;;;6.55;4.22;;;;;;;;;;4952921;28;20327;-69
2022/07/21 09:11:15;;;;;;;5.63;3.67;;;;;;;;;;4952022;28;20098;-68
2022/07/21 09:13:41;;;;;;;6.63;4.28;;;;;;;;;;4951519;28;20027;-68
2022/07/21 09:16:07;;;;;;;10.18;5.10;;;;;;;;;;4948678;28;20063;-68
2022/07/21 09:18:32;;;;;;;7.15;4.18;;;;;;;;;;4949782;28;20037;-69
2022/07/21 09:20:58;;;;;;;9.80;5.53;;;;;;;;;;4950978;28;20454;-68
2022/07/21 09:23:24;;;;;;;6.65;5.35;;;;;;;;;;4951859;29;20070;-69
2022/07/21 09:25:50;;;;;;;6.07;4.63;;;;;;;;;;4952602;28;20031;-68
2022/07/21 09:28:17;;;;;;;11.73;6.05;;;;;;;;;;4995347;23;20173;-67
2022/07/21 09:30:54;;;;;;;8.75;5.88;;;;;;;;;;5003487;28;20474;-67
2022/07/21 09:33:20;;;;;;;8.02;5.45;;;;;;;;;;4988443;28;20030;-67
2022/07/21 09:36:04;;;;;;;11.52;5.68;;;;;;;;;;4987893;28;20474;-68
2022/07/21 09:38:30;;;;;;;10.30;5.70;;;;;;;;;;4981151;28;20036;-67
2022/07/21 09:40:58;;;;;;;14.05;6.85;;;;;;;;;;4986698;28;20108;-67
2022/07/21 09:43:29;;;;;;;9.13;6.78;;;;;;;;;;4989234;28;20031;-67
2022/07/21 09:45:55;;;;;;;15.45;6.20;;;;;;;;;;4991153;28;20027;-68
2022/07/21 09:48:30;;;;;;;8.88;4.82;;;;;;;;;;4990038;28;20278;-67
2022/07/21 09:50:55;;;;;;;9.60;4.07;;;;;;;;;;4990070;28;20463;-68
2022/07/21 09:53:20;;;;;;;7.73;4.80;;;;;;;;;;4990993;28;20037;-68
2022/07/21 09:55:45;;;;;;;13.23;5.28;;;;;;;;;;4991098;28;20022;-68
2022/07/21 09:58:11;;;;;;;9.83;3.93;;;;;;;;;;4991044;28;20031;-67
2022/07/21 10:00:36;;;;;;;8.93;3.60;;;;;;;;;;4989767;28;20601;-69
2022/07/21 10:03:02;;;;;;;7.17;3.97;;;;;;;;;;4989382;28;20293;-67
2022/07/21 10:05:27;;;;;;;7.05;3.95;;;;;;;;;;4988701;28;20273;-67
2022/07/21 10:07:53;;;;;;;8.17;4.37;;;;;;;;;;4990730;28;20383;-68
2022/07/21 10:10:18;;;;;;;7.15;3.58;;;;;;;;;;4989038;28;20034;-67
2022/07/21 10:12:44;;;;;;;9.88;3.88;;;;;;;;;;4990716;28;20018;-67
2022/07/21 10:15:10;;;;;;;8.75;4.57;;;;;;;;;;4990144;28;20037;-67
2022/07/21 10:17:35;;;;;;;6.40;4.20;;;;;;;;;;4991655;28;20023;-68
2022/07/21 10:20:18;;;;;;;10.88;4.15;;;;;;;;;;4992951;28;20029;-67
2022/07/21 10:22:43;;;;;;;9.32;4.30;;;;;;;;;;4994651;28;20027;-67
2022/07/21 10:25:08;;;;;;;9.50;4.90;;;;;;;;;;4993830;28;20018;-67
2022/07/21 10:27:33;;;;;;;10.80;4.20;;;;;;;;;;4994587;28;20026;-68
2022/07/21 10:30:03;;;;;;;13.20;6.90;;;;;;;;;;4994524;28;20768;-70
2022/07/21 10:32:36;;;;;;;7.30;4.32;;;;;;;;;;4992922;28;20036;-68
2022/07/21 10:35:21;;;;;;;9.05;4.53;;;;;;;;;;4994051;28;20015;-67
2022/07/21 10:37:47;;;;;;;6.30;4.30;;;;;;;;;;4994156;28;20030;-67
2022/07/21 10:40:18;;;;;;;11.45;4.30;;;;;;;;;;4994585;28;20499;-68
2022/07/21 10:42:43;;;;;;;7.82;4.63;;;;;;;;;;4994466;28;20057;-67
2022/07/21 10:45:28;;;;;;;7.20;4.95;;;;;;;;;;4994339;28;20049;-67
2022/07/21 10:47:53;;;;;;;5.90;3.88;;;;;;;;;;4991877;28;20109;-67
2022/07/21 10:50:29;;;;;;;10.63;4.53;;;;;;;;;;4993334;28;20106;-67
2022/07/21 10:52:59;;;;;;;7.72;4.13;;;;;;;;;;4994560;28;20383;-68
2022/07/21 10:55:28;;;;;;;6.80;4.32;;;;;;;;;;4994349;28;20093;-68
2022/07/21 10:58:16;;;;;;;7.75;3.47;;;;;;;;;;4993785;28;20565;-68
2022/07/21 11:00:45;;;;;;;7.00;4.07;;;;;;;;;;4992439;28;20482;-68
2022/07/21 11:03:21;;;;;;;7.43;4.03;;;;;;;;;;4993451;28;20034;-67
2022/07/21 11:06:05;;;;;;;8.57;4.10;;;;;;;;;;4994018;28;20018;-68
2022/07/21 11:08:31;;;;;;;6.95;4.50;;;;;;;;;;4993708;28;20018;-66
2022/07/21 11:11:06;;;;;;;11.40;3.80;;;;;;;;;;4990559;28;20430;-67
2022/07/21 11:13:51;;;;;;;11.63;4.57;;;;;;;;;;4991377;28;20494;-68
2022/07/21 11:16:16;;;;;;;11.65;4.63;;;;;;;;;;4979503;28;20026;-68
2022/07/21 11:18:42;;;;;;;18.93;4.80;;;;;;;;;;4991336;28;20033;-67
2022/07/21 11:21:14;;;;;;;11.43;5.10;;;;;;;;;;4991082;28;20277;-68
2022/07/21 11:23:44;;;;;;;13.43;5.55;;;;;;;;;;4993551;28;20032;-68
2022/07/21 11:26:10;;;;;;;10.82;5.68;;;;;;;;;;4993572;28;20018;-68
2022/07/21 11:28:35;;;;;;;12.52;5.72;;;;;;;;;;4993126;28;20057;-68
2022/07/21 11:31:13;;;;;;;9.93;5.45;;;;;;;;;;4992575;28;20026;-67
2022/07/21 11:33:39;;;;;;;14.30;6.28;;;;;;;;;;4993495;28;20479;-68
2022/07/21 11:36:04;;;;;;;14.48;7.00;;;;;;;;;;4992773;28;20037;-67
2022/07/21 11:38:30;;;;;;;10.40;6.30;;;;;;;;;;4992835;28;20398;-68
2022/07/21 11:41:11;;;;;;;14.25;6.28;;;;;;;;;;4993238;28;20019;-67
2022/07/21 11:43:43;;;;;;;10.00;6.32;;;;;;;;;;4992399;28;20030;-67
2022/07/21 11:46:08;;;;;;;23.35;8.30;;;;;;;;;;4991995;28;20046;-68
2022/07/21 11:48:33;;;;;;;14.27;8.70;;;;;;;;;;4990044;28;20057;-67
2022/07/21 11:51:02;;;;;;;17.67;7.90;;;;;;;;;;4990309;28;20265;-67
2022/07/21 11:53:27;;;;;;;13.45;8.40;;;;;;;;;;4991261;28;20026;-67
2022/07/21 11:55:53;;;;;;;18.33;8.17;;;;;;;;;;4991888;28;20388;-68
2022/07/21 11:58:19;;;;;;;14.40;8.25;;;;;;;;;;4991683;28;20316;-68
2022/07/21 12:00:46;;;;;;;18.92;9.45;;;;;;;;;;4992003;28;20014;-67
2022/07/21 12:03:12;;;;;;;17.05;8.57;;;;;;;;;;4992761;28;20053;-68
2022/07/21 12:05:39;;;;;;;21.02;10.32;;;;;;;;;;4990163;28;20054;-69
2022/07/21 12:08:04;;;;;;;24.13;10.60;;;;;;;;;;4992071;28;20010;-68
2022/07/21 12:10:29;;;;;;;16.25;9.50;;;;;;;;;;4992843;28;20378;-68
2022/07/21 12:13:05;;;;;;;20.88;9.02;;;;;;;;;;4991242;28;20134;-68
2022/07/21 12:15:33;;;;;;;15.82;9.38;;;;;;;;;;4991592;28;20026;-68
2022/07/21 12:17:59;;;;;;;16.58;8.95;;;;;;;;;;4991986;28;20049;-68
2022/07/21 12:20:31;;;;;;;14.68;9.07;;;;;;;;;;4991075;28;20483;-68
2022/07/21 12:22:58;;;;;;;20.65;9.82;;;;;;;;;;4992511;28;20129;-68
2022/07/21 12:25:30;;;;;;;18.90;9.95;;;;;;;;;;4991774;28;20105;-69
2022/07/21 12:27:56;;;;;;;21.45;11.18;;;;;;;;;;4990848;28;20042;-68
2022/07/21 12:30:45;;;;;;;19.92;10.10;;;;;;;;;;4989413;28;20026;-69
2022/07/21 12:33:18;;;;;;;17.27;11.35;;;;;;;;;;4985809;28;20080;-69
2022/07/21 12:35:46;;;;;;;17.75;8.70;;;;;;;;;;4990843;28;20030;-68
2022/07/21 12:38:14;;;;;;;15.13;9.45;;;;;;;;;;4991691;28;20030;-68
2022/07/21 12:40:43;;;;;;;19.10;10.77;;;;;;;;;;4989159;28;20406;-68
2022/07/21 12:43:17;;;;;;;17.40;10.93;;;;;;;;;;4991554;28;20029;-68
2022/07/21 12:45:45;;;;;;;20.25;11.25;;;;;;;;;;4991008;28;20026;-68
2022/07/21 12:48:11;;;;;;;19.42;10.73;;;;;;;;;;4989360;28;20027;-68
2022/07/21 12:50:39;;;;;;;19.20;11.98;;;;;;;;;;4990085;28;20076;-69
2022/07/21 12:53:05;;;;;;;21.45;11.93;;;;;;;;;;4990329;28;20072;-68
2022/07/21 12:55:30;;;;;;;20.13;12.32;;;;;;;;;;4990663;28;20045;-68
2022/07/21 12:57:55;;;;;;;22.25;12.93;;;;;;;;;;4991160;28;20507;-68
2022/07/21 13:00:20;;;;;;;22.87;14.10;;;;;;;;;;4991954;28;20157;-68
2022/07/21 13:02:50;;;;;;;23.77;14.50;;;;;;;;;;4990192;28;20471;-68
2022/07/21 13:05:15;;;;;;;22.10;12.23;;;;;;;;;;4991596;28;20015;-68
2022/07/21 13:07:40;;;;;;;21.00;13.52;;;;;;;;;;4989959;28;20356;-69
2022/07/21 13:10:05;;;;;;;19.53;11.90;;;;;;;;;;4991387;28;20025;-68
2022/07/21 13:12:31;;;;;;;22.55;12.77;;;;;;;;;;4990908;28;20046;-69
2022/07/21 13:14:56;;;;;;;21.73;12.40;;;;;;;;;;4991191;28;20081;-68
2022/07/21 13:17:21;;;;;;;23.37;14.57;;;;;;;;;;4990697;28;20037;-69
2022/07/21 13:19:46;;;;;;;23.37;11.87;;;;;;;;;;4990184;28;20356;-69
2022/07/21 13:22:11;;;;;;;17.70;12.10;;;;;;;;;;4986686;28;20037;-67
2022/07/21 13:24:36;;;;;;;24.40;12.57;;;;;;;;;;4991368;28;20579;-68
2022/07/21 13:27:02;;;;;;;25.57;13.50;;;;;;;;;;4990488;28;20072;-68
2022/07/21 13:29:27;;;;;;;24.58;12.85;;;;;;;;;;4990775;28;20737;-68
2022/07/21 13:31:52;;;;;;;20.67;14.07;;;;;;;;;;4990084;28;20034;-68
2022/07/21 13:34:17;;;;;;;24.88;14.48;;;;;;;;;;4991160;28;20079;-68
2022/07/21 13:36:42;;;;;;;23.50;14.37;;;;;;;;;;4989823;28;20026;-68
2022/07/21 13:39:08;;;;;;;27.87;16.03;;;;;;;;;;4990566;28;20717;-68
2022/07/21 13:41:33;;;;;;;27.45;15.27;;;;;;;;;;4984391;28;20027;-70
2022/07/21 13:43:58;;;;;;;28.83;16.70;;;;;;;;;;4990262;28;20022;-68
2022/07/21 13:46:24;;;;;;;29.08;16.35;;;;;;;;;;4990462;28;20414;-68
2022/07/21 13:48:49;;;;;;;16.02;9.90;;;;;;;;;;4990553;28;20053;-68
2022/07/21 13:51:15;;;;;;;19.35;12.32;;;;;;;;;;4987989;28;20030;-68
2022/07/21 13:53:40;;;;;;;16.33;11.48;;;;;;;;;;4990138;28;20030;-68
2022/07/21 13:56:06;;;;;;;20.73;12.48;;;;;;;;;;4988923;28;20068;-68
2022/07/21 13:58:32;;;;;;;18.67;11.95;;;;;;;;;;4987657;28;20023;-68
2022/07/21 14:00:57;;;;;;;16.55;10.65;;;;;;;;;;4987835;28;20026;-68
2022/07/21 14:03:23;;;;;;;15.03;9.67;;;;;;;;;;4990650;28;20026;-68
2022/07/21 14:05:48;;;;;;;17.07;9.10;;;;;;;;;;4989507;28;20030;-70
2022/07/21 14:08:13;;;;;;;15.40;8.98;;;;;;;;;;4990170;28;20019;-67
2022/07/21 14:10:38;;;;;;;20.97;9.10;;;;;;;;;;4986806;28;20057;-68
2022/07/21 14:13:04;;;;;;;15.70;8.87;;;;;;;;;;4989725;28;20092;-68
2022/07/21 14:15:29;;;;;;;16.17;10.00;;;;;;;;;;4988503;28;20281;-71
2022/07/21 14:17:54;;;;;;;18.73;10.43;;;;;;;;;;4988583;28;20419;-68
2022/07/21 14:20:20;;;;;;;23.03;10.93;;;;;;;;;;4988851;28;20035;-68
2022/07/21 14:22:45;;;;;;;19.33;10.73;;;;;;;;;;4988379;28;20317;-70
2022/07/21 14:25:19;;;;;;;18.40;11.57;;;;;;;;;;4986798;28;20026;-71
2022/07/21 14:27:45;;;;;;;17.90;12.10;;;;;;;;;;4988406;28;20013;-70